sensor_id;sensor_type;location;lat;lon;timestamp;P1;durP1;ratioP1;P2;durP2;ratioP2
47259;SDS011;32999;52.412;4.890;2022-11-18T00:02:58;3.63;;;2.28;;
47259;SDS011;32999;52.412;4.890;2022-11-18T00:08:12;3.85;;;2.47;;
47259;SDS011;32999;52.412;4.890;2022-11-18T00:31:46;6.15;;;2.92;;
47259;SDS011;32999;52.412;4.890;2022-11-18T00:42:21;4.20;;;2.20;;
47259;SDS011;32999;52.412;4.890;2022-11-18T00:47:45;4.90;;;2.20;;
47259;SDS011;32999;52.412;4.890;2022-11-18T00:52:47;5.25;;;2.70;;
47259;SDS011;32999;52.412;4.890;2022-11-18T03:34:38;12.85;;;5.38;;
47259;SDS011;32999;52.412;4.890;2022-11-18T03:39:49;8.77;;;4.50;;
47259;SDS011;32999;52.412;4.890;2022-11-18T03:50:37;12.27;;;6.20;;
47259;SDS011;32999;52.412;4.890;2022-11-18T03:56:09;11.13;;;5.10;;
47259;SDS011;32999;52.412;4.890;2022-11-18T04:01:17;10.10;;;5.55;;
47259;SDS011;32999;52.412;4.890;2022-11-18T04:06:23;10.95;;;4.97;;
47259;SDS011;32999;52.412;4.890;2022-11-18T04:11:43;8.73;;;4.57;;
47259;SDS011;32999;52.412;4.890;2022-11-18T04:28:32;10.65;;;5.25;;
47259;SDS011;32999;52.412;4.890;2022-11-18T04:33:36;11.70;;;5.47;;
47259;SDS011;32999;52.412;4.890;2022-11-18T04:38:42;8.90;;;5.00;;
47259;SDS011;32999;52.412;4.890;2022-11-18T04:49:45;13.20;;;6.13;;
47259;SDS011;32999;52.412;4.890;2022-11-18T04:59:55;14.10;;;6.00;;
47259;SDS011;32999;52.412;4.890;2022-11-18T05:11:33;15.52;;;6.55;;
47259;SDS011;32999;52.412;4.890;2022-11-18T05:16:53;14.45;;;6.63;;
47259;SDS011;32999;52.412;4.890;2022-11-18T05:28:37;12.55;;;5.97;;
47259;SDS011;32999;52.412;4.890;2022-11-18T06:04:12;9.52;;;5.40;;
47259;SDS011;32999;52.412;4.890;2022-11-18T06:09:46;13.17;;;6.03;;
47259;SDS011;32999;52.412;4.890;2022-11-18T06:15:09;12.23;;;5.85;;
47259;SDS011;32999;52.412;4.890;2022-11-18T06:20:18;11.80;;;6.40;;
47259;SDS011;32999;52.412;4.890;2022-11-18T06:25:21;12.82;;;5.95;;
47259;SDS011;32999;52.412;4.890;2022-11-18T06:59:31;6.82;;;4.25;;
47259;SDS011;32999;52.412;4.890;2022-11-18T07:05:08;10.73;;;5.35;;
47259;SDS011;32999;52.412;4.890;2022-11-18T07:10:19;10.73;;;4.78;;
47259;SDS011;32999;52.412;4.890;2022-11-18T07:15:56;11.00;;;5.50;;
47259;SDS011;32999;52.412;4.890;2022-11-18T07:27:59;13.48;;;5.03;;
47259;SDS011;32999;52.412;4.890;2022-11-18T07:45:33;10.47;;;4.13;;
47259;SDS011;32999;52.412;4.890;2022-11-18T08:03:34;9.18;;;4.20;;
47259;SDS011;32999;52.412;4.890;2022-11-18T08:08:57;8.48;;;4.22;;
47259;SDS011;32999;52.412;4.890;2022-11-18T08:14:14;7.97;;;4.10;;
47259;SDS011;32999;52.412;4.890;2022-11-18T08:19:34;8.00;;;3.95;;
47259;SDS011;32999;52.412;4.890;2022-11-18T08:24:56;8.13;;;3.95;;
47259;SDS011;32999;52.412;4.890;2022-11-18T08:30:01;8.48;;;4.18;;
47259;SDS011;32999;52.412;4.890;2022-11-18T08:35:05;7.63;;;4.43;;
47259;SDS011;32999;52.412;4.890;2022-11-18T08:40:08;9.00;;;4.35;;
47259;SDS011;32999;52.412;4.890;2022-11-18T08:45:10;9.32;;;3.85;;
47259;SDS011;32999;52.412;4.890;2022-11-18T08:50:13;8.98;;;3.88;;
47259;SDS011;32999;52.412;4.890;2022-11-18T08:55:15;6.15;;;3.70;;
47259;SDS011;32999;52.412;4.890;2022-11-18T09:00:17;9.75;;;3.70;;
47259;SDS011;32999;52.412;4.890;2022-11-18T09:05:22;9.82;;;3.78;;
47259;SDS011;32999;52.412;4.890;2022-11-18T09:10:26;5.03;;;3.40;;
47259;SDS011;32999;52.412;4.890;2022-11-18T09:15:33;11.68;;;3.95;;
47259;SDS011;32999;52.412;4.890;2022-11-18T09:20:55;11.20;;;3.92;;
47259;SDS011;32999;52.412;4.890;2022-11-18T09:25:57;6.57;;;3.60;;
47259;SDS011;32999;52.412;4.890;2022-11-18T09:31:02;9.73;;;3.67;;
47259;SDS011;32999;52.412;4.890;2022-11-18T09:36:10;10.90;;;4.10;;
47259;SDS011;32999;52.412;4.890;2022-11-18T09:41:25;9.85;;;3.83;;
47259;SDS011;32999;52.412;4.890;2022-11-18T09:46:43;10.98;;;4.65;;
47259;SDS011;32999;52.412;4.890;2022-11-18T09:52:00;9.40;;;4.60;;
47259;SDS011;32999;52.412;4.890;2022-11-18T09:57:07;8.30;;;4.03;;
47259;SDS011;32999;52.412;4.890;2022-11-18T10:02:21;9.57;;;3.97;;
47259;SDS011;32999;52.412;4.890;2022-11-18T10:07:39;14.57;;;5.55;;
47259;SDS011;32999;52.412;4.890;2022-11-18T10:12:48;10.18;;;4.38;;
47259;SDS011;32999;52.412;4.890;2022-11-18T10:17:57;11.15;;;3.83;;
47259;SDS011;32999;52.412;4.890;2022-11-18T10:23:13;10.25;;;5.28;;
47259;SDS011;32999;52.412;4.890;2022-11-18T10:28:20;7.88;;;4.30;;
47259;SDS011;32999;52.412;4.890;2022-11-18T10:38:28;12.60;;;6.47;;
47259;SDS011;32999;52.412;4.890;2022-11-18T10:43:43;12.45;;;5.57;;
47259;SDS011;32999;52.412;4.890;2022-11-18T10:48:52;10.55;;;5.30;;
47259;SDS011;32999;52.412;4.890;2022-11-18T10:54:14;9.18;;;5.40;;
47259;SDS011;32999;52.412;4.890;2022-11-18T10:59:20;9.85;;;5.28;;
47259;SDS011;32999;52.412;4.890;2022-11-18T11:04:29;9.82;;;4.63;;
47259;SDS011;32999;52.412;4.890;2022-11-18T11:09:32;13.13;;;4.68;;
47259;SDS011;32999;52.412;4.890;2022-11-18T11:14:36;7.60;;;3.88;;
47259;SDS011;32999;52.412;4.890;2022-11-18T11:19:49;8.30;;;3.85;;
47259;SDS011;32999;52.412;4.890;2022-11-18T11:24:53;12.18;;;5.57;;
47259;SDS011;32999;52.412;4.890;2022-11-18T11:30:09;10.25;;;4.88;;
47259;SDS011;32999;52.412;4.890;2022-11-18T11:35:16;7.22;;;4.05;;
47259;SDS011;32999;52.412;4.890;2022-11-18T11:40:26;5.95;;;3.58;;
47259;SDS011;32999;52.412;4.890;2022-11-18T11:45:35;11.10;;;4.47;;
47259;SDS011;32999;52.412;4.890;2022-11-18T11:50:46;15.75;;;5.68;;
47259;SDS011;32999;52.412;4.890;2022-11-18T11:56:00;7.90;;;5.13;;
47259;SDS011;32999;52.412;4.890;2022-11-18T12:01:13;10.48;;;4.63;;
47259;SDS011;32999;52.412;4.890;2022-11-18T12:06:20;10.77;;;4.80;;
47259;SDS011;32999;52.412;4.890;2022-11-18T12:11:28;11.25;;;5.10;;
47259;SDS011;32999;52.412;4.890;2022-11-18T12:16:39;14.17;;;5.40;;
47259;SDS011;32999;52.412;4.890;2022-11-18T12:21:56;8.30;;;4.95;;
47259;SDS011;32999;52.412;4.890;2022-11-18T12:27:06;14.38;;;5.72;;
47259;SDS011;32999;52.412;4.890;2022-11-18T12:37:42;13.20;;;5.47;;
47259;SDS011;32999;52.412;4.890;2022-11-18T12:42:58;9.27;;;5.18;;
47259;SDS011;32999;52.412;4.890;2022-11-18T12:48:28;12.95;;;6.43;;
47259;SDS011;32999;52.412;4.890;2022-11-18T12:53:35;14.10;;;6.38;;
47259;SDS011;32999;52.412;4.890;2022-11-18T12:58:44;13.43;;;6.22;;
47259;SDS011;32999;52.412;4.890;2022-11-18T13:03:46;18.10;;;7.82;;
47259;SDS011;32999;52.412;4.890;2022-11-18T13:08:49;17.27;;;7.50;;
47259;SDS011;32999;52.412;4.890;2022-11-18T13:13:56;16.80;;;7.25;;
47259;SDS011;32999;52.412;4.890;2022-11-18T13:19:19;18.02;;;8.50;;
47259;SDS011;32999;52.412;4.890;2022-11-18T13:24:22;12.68;;;6.95;;
47259;SDS011;32999;52.412;4.890;2022-11-18T13:29:29;14.68;;;7.05;;
47259;SDS011;32999;52.412;4.890;2022-11-18T13:34:39;11.27;;;6.57;;
47259;SDS011;32999;52.412;4.890;2022-11-18T13:39:46;11.90;;;6.22;;
47259;SDS011;32999;52.412;4.890;2022-11-18T13:44:53;10.98;;;6.15;;
47259;SDS011;32999;52.412;4.890;2022-11-18T13:50:02;12.13;;;7.13;;
47259;SDS011;32999;52.412;4.890;2022-11-18T13:55:14;11.80;;;7.15;;
47259;SDS011;32999;52.412;4.890;2022-11-18T14:00:22;15.38;;;6.78;;
47259;SDS011;32999;52.412;4.890;2022-11-18T14:05:26;15.27;;;7.15;;
47259;SDS011;32999;52.412;4.890;2022-11-18T14:10:30;15.70;;;7.32;;
47259;SDS011;32999;52.412;4.890;2022-11-18T14:15:38;13.07;;;8.00;;
47259;SDS011;32999;52.412;4.890;2022-11-18T14:20:40;16.00;;;8.48;;
47259;SDS011;32999;52.412;4.890;2022-11-18T14:25:50;13.45;;;8.98;;
47259;SDS011;32999;52.412;4.890;2022-11-18T14:30:55;16.65;;;7.60;;
47259;SDS011;32999;52.412;4.890;2022-11-18T14:36:00;14.48;;;8.77;;
47259;SDS011;32999;52.412;4.890;2022-11-18T14:41:10;10.73;;;7.78;;
47259;SDS011;32999;52.412;4.890;2022-11-18T14:46:17;15.07;;;8.55;;
47259;SDS011;32999;52.412;4.890;2022-11-18T14:51:20;11.20;;;8.02;;
47259;SDS011;32999;52.412;4.890;2022-11-18T14:56:23;12.77;;;8.00;;
47259;SDS011;32999;52.412;4.890;2022-11-18T15:01:30;16.88;;;8.65;;
47259;SDS011;32999;52.412;4.890;2022-11-18T15:06:32;16.02;;;9.52;;
47259;SDS011;32999;52.412;4.890;2022-11-18T15:11:34;13.93;;;8.18;;
47259;SDS011;32999;52.412;4.890;2022-11-18T15:16:37;11.98;;;9.00;;
47259;SDS011;32999;52.412;4.890;2022-11-18T15:21:39;17.42;;;9.95;;
47259;SDS011;32999;52.412;4.890;2022-11-18T15:26:42;20.38;;;11.30;;
47259;SDS011;32999;52.412;4.890;2022-11-18T15:31:47;16.70;;;10.13;;
47259;SDS011;32999;52.412;4.890;2022-11-18T15:36:49;15.95;;;10.68;;
47259;SDS011;32999;52.412;4.890;2022-11-18T15:41:51;17.00;;;10.02;;
47259;SDS011;32999;52.412;4.890;2022-11-18T15:46:54;15.27;;;10.57;;
47259;SDS011;32999;52.412;4.890;2022-11-18T15:51:57;14.50;;;10.63;;
47259;SDS011;32999;52.412;4.890;2022-11-18T15:56:59;17.10;;;11.05;;
47259;SDS011;32999;52.412;4.890;2022-11-18T16:02:02;16.52;;;11.77;;
47259;SDS011;32999;52.412;4.890;2022-11-18T16:07:04;18.30;;;11.48;;
47259;SDS011;32999;52.412;4.890;2022-11-18T16:12:07;20.83;;;12.43;;
47259;SDS011;32999;52.412;4.890;2022-11-18T16:17:27;25.05;;;11.75;;
47259;SDS011;32999;52.412;4.890;2022-11-18T16:22:29;20.05;;;12.88;;
47259;SDS011;32999;52.412;4.890;2022-11-18T16:27:31;19.20;;;13.38;;
47259;SDS011;32999;52.412;4.890;2022-11-18T16:32:34;25.58;;;13.95;;
47259;SDS011;32999;52.412;4.890;2022-11-18T16:37:35;22.55;;;13.65;;
47259;SDS011;32999;52.412;4.890;2022-11-18T16:42:37;21.58;;;12.30;;
47259;SDS011;32999;52.412;4.890;2022-11-18T16:47:40;23.17;;;13.32;;
47259;SDS011;32999;52.412;4.890;2022-11-18T16:52:42;23.75;;;13.75;;
47259;SDS011;32999;52.412;4.890;2022-11-18T16:57:44;21.17;;;13.80;;
47259;SDS011;32999;52.412;4.890;2022-11-18T17:02:57;20.45;;;12.65;;
47259;SDS011;32999;52.412;4.890;2022-11-18T17:08:13;18.33;;;11.52;;
47259;SDS011;32999;52.412;4.890;2022-11-18T17:13:15;20.73;;;11.80;;
47259;SDS011;32999;52.412;4.890;2022-11-18T17:18:18;19.40;;;12.20;;
47259;SDS011;32999;52.412;4.890;2022-11-18T17:23:19;21.92;;;12.07;;
47259;SDS011;32999;52.412;4.890;2022-11-18T17:28:21;19.95;;;11.90;;
47259;SDS011;32999;52.412;4.890;2022-11-18T17:33:24;12.63;;;9.13;;
47259;SDS011;32999;52.412;4.890;2022-11-18T17:38:26;15.75;;;9.35;;
47259;SDS011;32999;52.412;4.890;2022-11-18T17:43:28;22.40;;;11.45;;
47259;SDS011;32999;52.412;4.890;2022-11-18T17:48:31;21.60;;;11.52;;
47259;SDS011;32999;52.412;4.890;2022-11-18T17:53:33;21.77;;;13.45;;
47259;SDS011;32999;52.412;4.890;2022-11-18T17:58:35;29.73;;;13.77;;
47259;SDS011;32999;52.412;4.890;2022-11-18T18:03:38;27.02;;;14.68;;
47259;SDS011;32999;52.412;4.890;2022-11-18T18:08:40;19.30;;;10.23;;
47259;SDS011;32999;52.412;4.890;2022-11-18T18:13:42;19.95;;;10.82;;
47259;SDS011;32999;52.412;4.890;2022-11-18T18:19:03;22.00;;;10.32;;
47259;SDS011;32999;52.412;4.890;2022-11-18T18:29:09;21.73;;;10.93;;
47259;SDS011;32999;52.412;4.890;2022-11-18T18:34:23;24.45;;;10.32;;
47259;SDS011;32999;52.412;4.890;2022-11-18T18:39:33;28.27;;;11.63;;
47259;SDS011;32999;52.412;4.890;2022-11-18T19:20:19;37.75;;;14.55;;
47259;SDS011;32999;52.412;4.890;2022-11-18T19:31:34;34.22;;;12.15;;
47259;SDS011;32999;52.412;4.890;2022-11-18T19:36:40;33.85;;;12.15;;
47259;SDS011;32999;52.412;4.890;2022-11-18T19:42:19;36.33;;;13.00;;
47259;SDS011;32999;52.412;4.890;2022-11-18T20:00:33;33.35;;;13.60;;
47259;SDS011;32999;52.412;4.890;2022-11-18T20:12:19;31.63;;;13.07;;
